• Join FlightAware (Why Join?)
  • Login
  • US Flag 
06:40PM EST


 

Airport Tracker/Info


-or-


 

Live Flight TrackerFlight Track Log ✈ GLA65P ✈ 06-May-2013 ✈ KPRC - KLAX

Flight Track Log - Related Links

Times and Time Zones

All times are in EDT time to prevent confusion due to time zone crossing. See the GLA65P flight status page for this flight to view local times or setup timezone preferences in your user account.

Time Position Orientation Groundspeed Altitude Reporting Facility
EDT Latitude Longitude Course Direction KTS MPH feet Rate Location/Type
05:09PM 34.7131 -112.6403 267° West 175 201 14,000  Level Albuquerque Center
05:10PM 34.7111 -112.8658 276° West  Level FlightAware Approximate
05:11PM 34.7167 -112.9442 270° West  Level FlightAware Approximate
05:11PM 34.7086 -112.7583 267° West 199 229 16,200  Level Los Angeles Center
05:12PM 34.7167 -113.0230 270° West  Level FlightAware Approximate
05:12PM 34.7150 -112.8519 275° West 199 229 17,700  Level Albuquerque Center
05:13PM 34.7167 -113.1018 270° West  Level FlightAware Approximate
05:13PM 34.7181 -112.9208 273° West 203 234 18,700  Level Albuquerque Center
05:14PM 34.7197 -112.9883 272° West 202 232 20,000 540 Climbing Albuquerque Center
05:15PM 34.7236 -113.0564 274° West 202 232 19,900 -60 Descending Albuquerque Center
05:16PM 34.7247 -113.1328 271° West 219 252 19,900  Level Albuquerque Center
05:17PM 34.7264 -113.2119 271° West 230 265 20,000  Climbing Albuquerque Center
05:18PM 34.7322 -113.3036 274° West 229 264 19,900  Descending Albuquerque Center
05:19PM 34.7361 -113.3797 274° West 227 261 20,000  Climbing Albuquerque Center
05:20PM 34.7378 -113.4561 272° West 225 259 20,000 -60 Level Albuquerque Center
05:21PM 34.7361 -113.5319 268° West 226 260 19,900  Descending Albuquerque Center
05:23PM 34.7278 -113.6692 266° West 227 261 20,000  Climbing Los Angeles Center
05:25PM 34.7267 -113.7608 269° West 226 260 20,000 -60 Level Albuquerque Center
05:27PM 34.7367 -113.9294 274° West 229 264 19,900 -60 Descending Los Angeles Center
05:29PM 34.7447 -114.0956 273° West 228 262 19,900  Level Los Angeles Center
05:30PM 34.7483 -114.1878 273° West 228 262 19,900  Level Los Angeles Center
05:32PM 34.7586 -114.3242 275° West 225 259 19,900  Level Albuquerque Center
05:33PM 34.7606 -114.4006 272° West 226 260 19,900  Level Albuquerque Center
05:33PM 34.7608 -114.4150 271° West 225 259 19,900  Level Los Angeles Center
05:34PM 34.7669 -114.5050 275° West 222 255 19,900  Level Los Angeles Center
05:35PM 34.7756 -114.5961 277° West 225 259 19,900  Level Los Angeles Center
05:36PM 34.7764 -114.6722 271° West 225 259 19,900  Level Los Angeles Center
05:37PM 34.7764 -114.7472 270° West 223 257 19,900  Level Los Angeles Center
05:38PM 34.7758 -114.8244 270° West 226 260 20,000  Climbing Los Angeles Center
05:39PM 34.7794 -114.8850 274° West 224 258 20,000 -60 Level Los Angeles Center
05:40PM 34.7836 -114.9769 273° West 227 261 19,900 -60 Descending Los Angeles Center
05:41PM 34.7850 -115.0564 271° West 231 266 19,900  Level Los Angeles Center
05:43PM 34.7883 -115.1494 273° West 229 264 19,900  Level Los Angeles Center
05:45PM 34.7908 -115.3028 271° West 228 262 20,000  Climbing Los Angeles Center
05:46PM 34.7947 -115.3981 273° West 234 269 20,000 -60 Level Los Angeles Center
05:47PM 34.7972 -115.4742 272° West 228 262 19,900 -60 Descending Los Angeles Center
05:49PM 34.8025 -115.6378 272° West 225 259 19,900  Level Los Angeles Center
05:50PM 34.8000 -115.7142 268° West 225 259 19,900  Level Los Angeles Center
05:51PM 34.7989 -115.8058 269° West 226 260 20,000  Climbing Los Angeles Center
05:52PM 34.7969 -115.8828 268° West 226 260 19,900  Descending Los Angeles Center
05:54PM 34.7834 -115.9787 270° West  Level FlightAware Approximate
05:55PM 34.7869 -116.1325 264° West 233 268 20,000  Level Los Angeles Center
05:57PM 34.7860 -116.2210 269° West  Level FlightAware Approximate
05:57PM 34.7939 -116.2897 269° West 234 269 19,900  Level Los Angeles Center
05:58PM 34.7958 -116.3531 272° West 236 272 19,900  Level Los Angeles Center
06:00PM 34.7900 -116.5269 268° West 234 269 19,900  Level Los Angeles Center
06:01PM 34.7790 -116.5023 264° West  Level FlightAware Approximate
06:02PM 34.7800 -116.6242 263° West 240 276 19,900  Level Los Angeles Center
06:03PM 34.7731 -116.7031 264° West 238 274 19,900  Level Los Angeles Center
06:04PM 34.7683 -116.7667 265° West 236 272 19,900  Level Los Angeles Center
06:06PM 34.7592 -116.9439 266° West 240 276 19,900 -360 Level Los Angeles Center
06:08PM 34.7300 -117.0821 263° West  Level FlightAware Approximate
06:09PM 34.7289 -117.2042 263° West 248 285 18,200  Level Los Angeles Center
06:11PM 34.6989 -117.3767 258° West 261 300 15,600 -1,200 Descending Los Angeles Center
06:13PM 34.6799 -117.5812 262° West  Level FlightAware Approximate
06:14PM 34.6631 -117.6344 262° West 259 298 12,100  Level Los Angeles Center
06:15PM 34.6586 -117.7197 266° West 254 292 11,900 -240 Descending Los Angeles Center
06:17PM 34.6447 -117.8361 263° West  Level FlightAware Approximate
06:18PM 34.6361 -117.9975 263° West 261 300 11,200  Level Los Angeles Center
06:19PM 34.6117 -118.0744 249° West 261 300 10,000 -1,260 Descending Los Angeles Center
06:20PM 34.5789 -118.1408 239° Southwest 230 265 8,700 -840 Descending Los Angeles Center
06:22PM 34.5167 -118.2500 235° Southwest 203 234 7,900 -420 Descending Southern California TRACON
06:22PM 34.5139 -118.2653 258° West 203 234 7,900  Level Los Angeles Center
06:23PM 34.4808 -118.3189 233° Southwest 200 230 7,900  Level Los Angeles Center
06:24PM 34.4225 -118.3550 207° Southwest 204 235 7,900  Level Los Angeles Center
06:25PM 34.3603 -118.3639 187° South 201 231 8,000 60 Climbing Los Angeles Center
06:27PM 34.3083 -118.3344 155° Southeast 209 241 8,100 -720 Climbing Los Angeles Center
06:30PM 34.2040 -118.3020 158° South  Level FlightAware Approximate
06:31PM 34.0833 -118.2667 158° South 197 227 4,400  Level Southern California TRACON
06:33PM 34.0167 -118.1833 134° Southeast 176 203 2,600 -480 Descending Southern California TRACON
06:35PM 33.9667 -118.2500 228° Southwest 145 167 2,700 -180 Climbing Southern California TRACON
06:36PM 33.9667 -118.3000 270° West 145 167 2,200 -600 Descending Southern California TRACON
06:37PM 33.9500 -118.3500 248° West 131 151 1,500 -780 Descending Southern California TRACON
06:38PM 33.9542 -118.3914 277° West 134 154 600 -840 Descending Los Angeles Center
06:40PM 33.9333 -118.4000 228° Southwest  Level FlightAware Approximate
06:47PM 33.9425 -118.4081 228° Southwest  Level Estimated
06:48PM 33.9425 -118.4081 228° Southwest  Level Estimated
06:49PM 33.9425 -118.4081 228° Southwest  Level Estimated
06:50PM 33.9425 -118.4081 228° Southwest  Level Estimated
06:51PM 33.9425 -118.4081 228° Southwest  Level Estimated
06:52PM 33.9425 -118.4081 228° Southwest  Level Estimated